Wedge Too — ZCII — position and weather

sailwx.info

Track history (hours):
 
Tides and Currents Weather Stations Pressure Air Temp Water Temp Dewpoint Dewpoint Depression Visibility Wind Speed Wind Dir Waves Ship Positions

Wedge Too

Last reported at 2014-Jul-28 08:13 UTC. Time now 2014-Jul-28 10:19 UTC.
Position N 43°44' E 007°25'.

Length 65 m; draft 3.4 m.

Type: Pleasure craft. MMSI: 319861000.

Date/timePositionNaut miles runAvg speedWind from/ knotsBaromVisibWave heightAir tempDewpointWater temp
2014-Jul-28 08:13N 43°44' E 007°25'0 0.0
2014-Jul-28 07:19N 43°44' E 007°25'0 0.0
2014-Jul-28 06:07N 43°44' E 007°25'0 0.0
2014-Jul-28 05:31N 43°44' E 007°25'0 0.0
2014-Jul-28 04:25N 43°44' E 007°25'0 0.0
2014-Jul-28 03:31N 43°44' E 007°25'0 0.0
2014-Jul-28 02:25N 43°44' E 007°25'0 0.0
2014-Jul-28 01:31N 43°44' E 007°25'0 0.0
2014-Jul-28 00:31N 43°44' E 007°25'0 0.0
2014-Jul-27 23:25N 43°44' E 007°25'0 0.0
2014-Jul-27 22:19N 43°44' E 007°25'0 0.0
2014-Jul-27 21:31N 43°44' E 007°25'0 0.0
2014-Jul-27 20:31N 43°44' E 007°25'0 0.0
2014-Jul-27 18:25N 43°44' E 007°25'0 0.0
2014-Jul-27 17:19N 43°44' E 007°25'0 0.0
2014-Jul-27 15:25N 43°44' E 007°25'2 2.8
2014-Jul-27 14:33N 43°42' E 007°23'2 0.8
2014-Jul-27 12:31N 43°42' E 007°21'0 0.0
2014-Jul-27 11:28N 43°42' E 007°21'5 5.4
2014-Jul-27 10:33N 43°38' E 007°18'1414.0
2014-Jul-27 09:33N 43°29' E 007°03'1414.4
2014-Jul-27 08:33N 43°21' E 006°46'8 7.6
2014-Jul-27 07:34N 43°16' E 006°38'0 0.0
2014-Jul-27 06:34N 43°16' E 006°38'0 0.0
2014-Jul-27 05:34N 43°16' E 006°38'0 0.0
2014-Jul-27 04:33N 43°16' E 006°38'0 0.0
2014-Jul-27 03:33N 43°16' E 006°38'0 0.0
2014-Jul-27 02:33N 43°16' E 006°38'0 0.0
2014-Jul-27 01:33N 43°16' E 006°38'0 0.0
2014-Jul-27 00:34N 43°16' E 006°38'0 0.0
2014-Jul-26 23:33N 43°16' E 006°38'0 0.0
2014-Jul-26 22:31N 43°16' E 006°38'0 0.0
2014-Jul-26 21:34N 43°16' E 006°38'0 0.0
2014-Jul-26 20:33N 43°16' E 006°38'0 0.0
2014-Jul-26 19:25N 43°16' E 006°38'0 0.0
2014-Jul-26 18:33N 43°16' E 006°38'0 0.0
2014-Jul-26 17:33N 43°16' E 006°38'0 0.0
2014-Jul-26 16:27N 43°16' E 006°38'0 0.0
2014-Jul-26 15:33N 43°16' E 006°38'0 0.0
2014-Jul-26 14:25N 43°16' E 006°38'0 0.0
2014-Jul-26 13:24N 43°16' E 006°38'0 0.0
2014-Jul-26 12:24N 43°16' E 006°38'0 0.0
2014-Jul-26 11:27N 43°16' E 006°38'0 0.0
2014-Jul-26 10:33N 43°16' E 006°38'0 0.0
2014-Jul-26 09:33N 43°16' E 006°38'0 0.0
2014-Jul-26 08:27N 43°16' E 006°38'0 0.0
2014-Jul-26 07:27N 43°16' E 006°38'0 0.0
2014-Jul-26 06:33N 43°16' E 006°38'0 0.0
2014-Jul-26 05:33N 43°16' E 006°38'0 0.0
2014-Jul-26 04:33N 43°16' E 006°38'0 0.0
2014-Jul-26 03:33N 43°16' E 006°38'0 0.0
2014-Jul-26 02:33N 43°16' E 006°38'0 0.0
2014-Jul-26 01:33N 43°16' E 006°38'0 0.0
2014-Jul-26 00:33N 43°16' E 006°38'0 0.0
2014-Jul-25 23:33N 43°16' E 006°38'0 0.0
2014-Jul-25 22:33N 43°16' E 006°38'0 0.0
2014-Jul-25 21:33N 43°16' E 006°38'0 0.0
2014-Jul-25 20:33N 43°16' E 006°38'0 0.0
2014-Jul-25 19:33N 43°16' E 006°38'0 0.0
2014-Jul-25 18:33N 43°16' E 006°38'0 0.0
2014-Jul-25 17:27N 43°16' E 006°38'0 0.0
2014-Jul-25 16:24N 43°16' E 006°38'0 0.0
2014-Jul-25 15:30N 43°16' E 006°38'0 0.0
2014-Jul-25 14:24N 43°16' E 006°38'0 0.1
2014-Jul-25 13:33N 43°16' E 006°38'9 9.0
2014-Jul-25 12:33N 43°22' E 006°48'1515.1
2014-Jul-25 11:34N 43°30' E 007°05'1515.3
2014-Jul-25 10:34N 43°40' E 007°21'5 0.7
2014-Jul-25 03:21N 43°44' E 007°25'0 0.0
2014-Jul-25 02:24N 43°44' E 007°25'0 0.0
2014-Jul-25 00:33N 43°44' E 007°25'0 0.0
2014-Jul-24 22:17N 43°44' E 007°25'0 0.0
2014-Jul-24 21:24N 43°44' E 007°25'0 0.0
2014-Jul-24 20:27N 43°44' E 007°25'0 0.0
2014-Jul-24 18:14N 43°44' E 007°25'0 0.0
2014-Jul-24 17:31N 43°44' E 007°25'0 0.0
2014-Jul-24 16:10N 43°44' E 007°25'0 0.0
2014-Jul-24 15:32N 43°44' E 007°25'0 0.0
2014-Jul-24 14:30N 43°44' E 007°25'0 0.0
2014-Jul-24 13:29N 43°44' E 007°25'0 0.0
2014-Jul-24 12:32N 43°44' E 007°25'0 0.0
2014-Jul-24 11:30N 43°44' E 007°25'0 0.0
2014-Jul-24 01:30N 43°44' E 007°25'0 0.0
2014-Jul-24 00:31N 43°44' E 007°25'0 0.0
2014-Jul-23 23:27N 43°44' E 007°25'0 0.0
2014-Jul-23 21:33N 43°44' E 007°25'0 0.0
2014-Jul-23 20:29N 43°44' E 007°25'0 0.0
2014-Jul-23 19:30N 43°44' E 007°25'0 0.0
2014-Jul-23 18:33N 43°44' E 007°25'0 0.0
2014-Jul-23 17:33N 43°44' E 007°25'0 0.0
2014-Jul-23 16:33N 43°44' E 007°25'0 0.0
2014-Jul-23 15:32N 43°44' E 007°25'0 0.0
2014-Jul-23 14:33N 43°44' E 007°25'0 0.0
2014-Jul-23 13:23N 43°44' E 007°25'0 0.0
2014-Jul-23 12:24N 43°44' E 007°25'0 0.0
2014-Jul-23 10:31N 43°44' E 007°25'0 0.0
2014-Jul-23 09:33N 43°44' E 007°25'0 0.0
2014-Jul-23 08:33N 43°44' E 007°25'0 0.0
2014-Jul-23 07:33N 43°44' E 007°25'0 0.0
2014-Jul-23 06:33N 43°44' E 007°25'0 0.0
2014-Jul-23 05:27N 43°44' E 007°25'0 0.0
2014-Jul-23 04:33N 43°44' E 007°25'0 0.0
2014-Jul-23 03:33N 43°44' E 007°25'0 0.0
2014-Jul-23 02:08N 43°44' E 007°25'0 0.0
2014-Jul-23 01:30N 43°44' E 007°25'0 0.0
2014-Jul-23 00:33N 43°44' E 007°25'0 0.0
2014-Jul-22 18:25N 43°44' E 007°25'0 0.0
2014-Jul-22 17:33N 43°44' E 007°25'0 0.0
2014-Jul-22 16:33N 43°44' E 007°25'0 0.0
2014-Jul-22 15:33N 43°44' E 007°25'0 0.0
2014-Jul-22 14:33N 43°44' E 007°25'0 0.0
2014-Jul-22 13:33N 43°44' E 007°25'0 0.0
2014-Jul-22 12:32N 43°44' E 007°25'0 0.0
2014-Jul-22 08:05N 43°44' E 007°25'0 0.0
2014-Jul-22 07:33N 43°44' E 007°25'0 0.0
2014-Jul-22 06:29N 43°44' E 007°25'0 0.0
2014-Jul-22 05:33N 43°44' E 007°25'0 0.0
2014-Jul-22 04:33N 43°44' E 007°25'0 0.0
2014-Jul-22 03:33N 43°44' E 007°25'0 0.0
2014-Jul-20 18:30N 43°44' E 007°25'0 0.0
2014-Jul-20 16:10N 43°44' E 007°25'0 0.0
2014-Jul-20 15:32N 43°44' E 007°25'0 0.0
2014-Jul-20 06:28N 43°44' E 007°25'0 0.0
2014-Jul-20 05:32N 43°44' E 007°25'0 0.0
2014-Jul-20 04:33N 43°44' E 007°25'0 0.0
2014-Jul-20 03:33N 43°44' E 007°25'0 0.0
2014-Jul-20 02:33N 43°44' E 007°25'0 0.0
2014-Jul-20 01:33N 43°44' E 007°25'0 0.0
2014-Jul-20 00:33N 43°44' E 007°25'0 0.0
2014-Jul-19 23:32N 43°44' E 007°25'0 0.0
2014-Jul-19 22:33N 43°44' E 007°25'0 0.0
2014-Jul-19 21:29N 43°44' E 007°25'0 0.0
2014-Jul-19 20:26N 43°44' E 007°25'0 0.0
2014-Jul-19 19:30N 43°44' E 007°25'0 0.0
2014-Jul-19 18:33N 43°44' E 007°25'0 0.0
2014-Jul-19 17:33N 43°44' E 007°25'0 0.0
2014-Jul-19 16:33N 43°44' E 007°25'0 0.0
2014-Jul-19 15:33N 43°44' E 007°25'0 0.0
2014-Jul-19 14:33N 43°44' E 007°25'0 0.0
2014-Jul-19 13:23N 43°44' E 007°25'0 0.0
2014-Jul-19 12:33N 43°44' E 007°25'0 0.0
2014-Jul-19 11:33N 43°44' E 007°25'0 0.0
2014-Jul-19 10:33N 43°44' E 007°25'0 0.0
2014-Jul-19 09:33N 43°44' E 007°25'0 0.0
2014-Jul-19 08:33N 43°44' E 007°25'0 0.0
2014-Jul-19 07:33N 43°44' E 007°25'0 0.0
2014-Jul-19 06:33N 43°44' E 007°25'0 0.0
2014-Jul-19 05:33N 43°44' E 007°25'0 0.0
2014-Jul-19 04:33N 43°44' E 007°25'0 0.0
2014-Jul-19 03:13N 43°44' E 007°25'0 0.0
2014-Jul-19 02:33N 43°44' E 007°25'0 0.0
2014-Jul-19 01:29N 43°44' E 007°25'0 0.0
2014-Jul-19 00:29N 43°44' E 007°25'0 0.0
2014-Jul-18 23:33N 43°44' E 007°25'0 0.0
2014-Jul-18 22:33N 43°44' E 007°25'0 0.0
2014-Jul-18 21:33N 43°44' E 007°25'0 0.0
2014-Jul-18 20:33N 43°44' E 007°25'0 0.0
2014-Jul-18 18:30N 43°44' E 007°25'0 0.0
2014-Jul-18 17:33N 43°44' E 007°25'0 0.0
2014-Jul-18 16:33N 43°44' E 007°25'0 0.0
2014-Jul-18 15:26N 43°44' E 007°25'0 0.0
2014-Jul-18 14:33N 43°44' E 007°25'0 0.0
2014-Jul-18 13:33N 43°44' E 007°25'0 0.0
2014-Jul-18 12:31N 43°44' E 007°25'0 0.0
2014-Jul-18 11:33N 43°44' E 007°25'0 0.0
2014-Jul-18 10:33N 43°44' E 007°25'0 0.0
2014-Jul-18 09:30N 43°44' E 007°25'0 0.0
2014-Jul-18 08:33N 43°44' E 007°25'  
Track history (hours):
 
Tides and Currents Weather Stations Pressure Air Temp Water Temp Dewpoint Dewpoint Depression Visibility Wind Speed Wind Dir Waves Ship Positions

Wedge Too

Last reported at 2014-Jul-28 08:13 UTC. Time now 2014-Jul-28 10:19 UTC.
Position N 43°44' E 007°25'.

Length 65 m; draft 3.4 m.

Type: Pleasure craft. MMSI: 319861000.

Date/timePositionNaut miles runAvg speedWind from/ knotsBaromVisibWave heightAir tempDewpointWater temp
2014-Jul-28 08:13N 43°44' E 007°25'0 0.0
2014-Jul-28 07:19N 43°44' E 007°25'0 0.0
2014-Jul-28 06:07N 43°44' E 007°25'0 0.0
2014-Jul-28 05:31N 43°44' E 007°25'0 0.0
2014-Jul-28 04:25N 43°44' E 007°25'0 0.0
2014-Jul-28 03:31N 43°44' E 007°25'0 0.0
2014-Jul-28 02:25N 43°44' E 007°25'0 0.0
2014-Jul-28 01:31N 43°44' E 007°25'0 0.0
2014-Jul-28 00:31N 43°44' E 007°25'0 0.0
2014-Jul-27 23:25N 43°44' E 007°25'0 0.0
2014-Jul-27 22:19N 43°44' E 007°25'0 0.0
2014-Jul-27 21:31N 43°44' E 007°25'0 0.0
2014-Jul-27 20:31N 43°44' E 007°25'0 0.0
2014-Jul-27 18:25N 43°44' E 007°25'0 0.0
2014-Jul-27 17:19N 43°44' E 007°25'0 0.0
2014-Jul-27 15:25N 43°44' E 007°25'2 2.8
2014-Jul-27 14:33N 43°42' E 007°23'2 0.8
2014-Jul-27 12:31N 43°42' E 007°21'0 0.0
2014-Jul-27 11:28N 43°42' E 007°21'5 5.4
2014-Jul-27 10:33N 43°38' E 007°18'1414.0
2014-Jul-27 09:33N 43°29' E 007°03'1414.4
2014-Jul-27 08:33N 43°21' E 006°46'8 7.6
2014-Jul-27 07:34N 43°16' E 006°38'0 0.0
2014-Jul-27 06:34N 43°16' E 006°38'0 0.0
2014-Jul-27 05:34N 43°16' E 006°38'0 0.0
2014-Jul-27 04:33N 43°16' E 006°38'0 0.0
2014-Jul-27 03:33N 43°16' E 006°38'0 0.0
2014-Jul-27 02:33N 43°16' E 006°38'0 0.0
2014-Jul-27 01:33N 43°16' E 006°38'0 0.0
2014-Jul-27 00:34N 43°16' E 006°38'0 0.0
2014-Jul-26 23:33N 43°16' E 006°38'0 0.0
2014-Jul-26 22:31N 43°16' E 006°38'0 0.0
2014-Jul-26 21:34N 43°16' E 006°38'0 0.0
2014-Jul-26 20:33N 43°16' E 006°38'0 0.0
2014-Jul-26 19:25N 43°16' E 006°38'0 0.0
2014-Jul-26 18:33N 43°16' E 006°38'0 0.0
2014-Jul-26 17:33N 43°16' E 006°38'0 0.0
2014-Jul-26 16:27N 43°16' E 006°38'0 0.0
2014-Jul-26 15:33N 43°16' E 006°38'0 0.0
2014-Jul-26 14:25N 43°16' E 006°38'0 0.0
2014-Jul-26 13:24N 43°16' E 006°38'0 0.0
2014-Jul-26 12:24N 43°16' E 006°38'0 0.0
2014-Jul-26 11:27N 43°16' E 006°38'0 0.0
2014-Jul-26 10:33N 43°16' E 006°38'0 0.0
2014-Jul-26 09:33N 43°16' E 006°38'0 0.0
2014-Jul-26 08:27N 43°16' E 006°38'0 0.0
2014-Jul-26 07:27N 43°16' E 006°38'0 0.0
2014-Jul-26 06:33N 43°16' E 006°38'0 0.0
2014-Jul-26 05:33N 43°16' E 006°38'0 0.0
2014-Jul-26 04:33N 43°16' E 006°38'0 0.0
2014-Jul-26 03:33N 43°16' E 006°38'0 0.0
2014-Jul-26 02:33N 43°16' E 006°38'0 0.0
2014-Jul-26 01:33N 43°16' E 006°38'0 0.0
2014-Jul-26 00:33N 43°16' E 006°38'0 0.0
2014-Jul-25 23:33N 43°16' E 006°38'0 0.0
2014-Jul-25 22:33N 43°16' E 006°38'0 0.0
2014-Jul-25 21:33N 43°16' E 006°38'0 0.0
2014-Jul-25 20:33N 43°16' E 006°38'0 0.0
2014-Jul-25 19:33N 43°16' E 006°38'0 0.0
2014-Jul-25 18:33N 43°16' E 006°38'0 0.0
2014-Jul-25 17:27N 43°16' E 006°38'0 0.0
2014-Jul-25 16:24N 43°16' E 006°38'0 0.0
2014-Jul-25 15:30N 43°16' E 006°38'0 0.0
2014-Jul-25 14:24N 43°16' E 006°38'0 0.1
2014-Jul-25 13:33N 43°16' E 006°38'9 9.0
2014-Jul-25 12:33N 43°22' E 006°48'1515.1
2014-Jul-25 11:34N 43°30' E 007°05'1515.3
2014-Jul-25 10:34N 43°40' E 007°21'5 0.7
2014-Jul-25 03:21N 43°44' E 007°25'0 0.0
2014-Jul-25 02:24N 43°44' E 007°25'0 0.0
2014-Jul-25 00:33N 43°44' E 007°25'0 0.0
2014-Jul-24 22:17N 43°44' E 007°25'0 0.0
2014-Jul-24 21:24N 43°44' E 007°25'0 0.0
2014-Jul-24 20:27N 43°44' E 007°25'0 0.0
2014-Jul-24 18:14N 43°44' E 007°25'0 0.0
2014-Jul-24 17:31N 43°44' E 007°25'0 0.0
2014-Jul-24 16:10N 43°44' E 007°25'0 0.0
2014-Jul-24 15:32N 43°44' E 007°25'0 0.0
2014-Jul-24 14:30N 43°44' E 007°25'0 0.0
2014-Jul-24 13:29N 43°44' E 007°25'0 0.0
2014-Jul-24 12:32N 43°44' E 007°25'0 0.0
2014-Jul-24 11:30N 43°44' E 007°25'0 0.0
2014-Jul-24 01:30N 43°44' E 007°25'0 0.0
2014-Jul-24 00:31N 43°44' E 007°25'0 0.0
2014-Jul-23 23:27N 43°44' E 007°25'0 0.0
2014-Jul-23 21:33N 43°44' E 007°25'0 0.0
2014-Jul-23 20:29N 43°44' E 007°25'0 0.0
2014-Jul-23 19:30N 43°44' E 007°25'0 0.0
2014-Jul-23 18:33N 43°44' E 007°25'0 0.0
2014-Jul-23 17:33N 43°44' E 007°25'0 0.0
2014-Jul-23 16:33N 43°44' E 007°25'0 0.0
2014-Jul-23 15:32N 43°44' E 007°25'0 0.0
2014-Jul-23 14:33N 43°44' E 007°25'0 0.0
2014-Jul-23 13:23N 43°44' E 007°25'0 0.0
2014-Jul-23 12:24N 43°44' E 007°25'0 0.0
2014-Jul-23 10:31N 43°44' E 007°25'0 0.0
2014-Jul-23 09:33N 43°44' E 007°25'0 0.0
2014-Jul-23 08:33N 43°44' E 007°25'0 0.0
2014-Jul-23 07:33N 43°44' E 007°25'0 0.0
2014-Jul-23 06:33N 43°44' E 007°25'0 0.0
2014-Jul-23 05:27N 43°44' E 007°25'0 0.0
2014-Jul-23 04:33N 43°44' E 007°25'0 0.0
2014-Jul-23 03:33N 43°44' E 007°25'0 0.0
2014-Jul-23 02:08N 43°44' E 007°25'0 0.0
2014-Jul-23 01:30N 43°44' E 007°25'0 0.0
2014-Jul-23 00:33N 43°44' E 007°25'0 0.0
2014-Jul-22 18:25N 43°44' E 007°25'0 0.0
2014-Jul-22 17:33N 43°44' E 007°25'0 0.0
2014-Jul-22 16:33N 43°44' E 007°25'0 0.0
2014-Jul-22 15:33N 43°44' E 007°25'0 0.0
2014-Jul-22 14:33N 43°44' E 007°25'0 0.0
2014-Jul-22 13:33N 43°44' E 007°25'0 0.0
2014-Jul-22 12:32N 43°44' E 007°25'0 0.0
2014-Jul-22 08:05N 43°44' E 007°25'0 0.0
2014-Jul-22 07:33N 43°44' E 007°25'0 0.0
2014-Jul-22 06:29N 43°44' E 007°25'0 0.0
2014-Jul-22 05:33N 43°44' E 007°25'0 0.0
2014-Jul-22 04:33N 43°44' E 007°25'0 0.0
2014-Jul-22 03:33N 43°44' E 007°25'0 0.0
2014-Jul-20 18:30N 43°44' E 007°25'0 0.0
2014-Jul-20 16:10N 43°44' E 007°25'0 0.0
2014-Jul-20 15:32N 43°44' E 007°25'0 0.0
2014-Jul-20 06:28N 43°44' E 007°25'0 0.0
2014-Jul-20 05:32N 43°44' E 007°25'0 0.0
2014-Jul-20 04:33N 43°44' E 007°25'0 0.0
2014-Jul-20 03:33N 43°44' E 007°25'0 0.0
2014-Jul-20 02:33N 43°44' E 007°25'0 0.0
2014-Jul-20 01:33N 43°44' E 007°25'0 0.0
2014-Jul-20 00:33N 43°44' E 007°25'0 0.0
2014-Jul-19 23:32N 43°44' E 007°25'0 0.0
2014-Jul-19 22:33N 43°44' E 007°25'0 0.0
2014-Jul-19 21:29N 43°44' E 007°25'0 0.0
2014-Jul-19 20:26N 43°44' E 007°25'0 0.0
2014-Jul-19 19:30N 43°44' E 007°25'0 0.0
2014-Jul-19 18:33N 43°44' E 007°25'0 0.0
2014-Jul-19 17:33N 43°44' E 007°25'0 0.0
2014-Jul-19 16:33N 43°44' E 007°25'0 0.0
2014-Jul-19 15:33N 43°44' E 007°25'0 0.0
2014-Jul-19 14:33N 43°44' E 007°25'0 0.0
2014-Jul-19 13:23N 43°44' E 007°25'0 0.0
2014-Jul-19 12:33N 43°44' E 007°25'0 0.0
2014-Jul-19 11:33N 43°44' E 007°25'0 0.0
2014-Jul-19 10:33N 43°44' E 007°25'0 0.0
2014-Jul-19 09:33N 43°44' E 007°25'0 0.0
2014-Jul-19 08:33N 43°44' E 007°25'0 0.0
2014-Jul-19 07:33N 43°44' E 007°25'0 0.0
2014-Jul-19 06:33N 43°44' E 007°25'0 0.0
2014-Jul-19 05:33N 43°44' E 007°25'0 0.0
2014-Jul-19 04:33N 43°44' E 007°25'0 0.0
2014-Jul-19 03:13N 43°44' E 007°25'0 0.0
2014-Jul-19 02:33N 43°44' E 007°25'0 0.0
2014-Jul-19 01:29N 43°44' E 007°25'0 0.0
2014-Jul-19 00:29N 43°44' E 007°25'0 0.0
2014-Jul-18 23:33N 43°44' E 007°25'0 0.0
2014-Jul-18 22:33N 43°44' E 007°25'0 0.0
2014-Jul-18 21:33N 43°44' E 007°25'0 0.0
2014-Jul-18 20:33N 43°44' E 007°25'0 0.0
2014-Jul-18 18:30N 43°44' E 007°25'0 0.0
2014-Jul-18 17:33N 43°44' E 007°25'0 0.0
2014-Jul-18 16:33N 43°44' E 007°25'0 0.0
2014-Jul-18 15:26N 43°44' E 007°25'0 0.0
2014-Jul-18 14:33N 43°44' E 007°25'0 0.0
2014-Jul-18 13:33N 43°44' E 007°25'0 0.0
2014-Jul-18 12:31N 43°44' E 007°25'0 0.0
2014-Jul-18 11:33N 43°44' E 007°25'0 0.0
2014-Jul-18 10:33N 43°44' E 007°25'0 0.0
2014-Jul-18 09:30N 43°44' E 007°25'0 0.0
2014-Jul-18 08:33N 43°44' E 007°25'  

Dump ship's entire track history